sensor_id;sensor_type;location;lat;lon;timestamp;pressure;altitude;pressure_sealevel;temperature;humidity
26859;BME280;14429;48.346;16.338;2023-04-03T00:02:01;100206.66;;;11.58;55.13
26859;BME280;14429;48.346;16.338;2023-04-03T00:04:26;100209.25;;;11.86;55.32
26859;BME280;14429;48.346;16.338;2023-04-03T00:06:52;100205.38;;;11.78;54.54
26859;BME280;14429;48.346;16.338;2023-04-03T00:09:17;100205.50;;;12.14;55.46
26859;BME280;14429;48.346;16.338;2023-04-03T00:11:43;100204.75;;;11.60;48.79
26859;BME280;14429;48.346;16.338;2023-04-03T00:14:08;100202.34;;;12.34;53.42
26859;BME280;14429;48.346;16.338;2023-04-03T00:16:35;100205.72;;;11.59;48.47
26859;BME280;14429;48.346;16.338;2023-04-03T00:19:01;100207.44;;;12.25;51.11
26859;BME280;14429;48.346;16.338;2023-04-03T00:21:26;100204.75;;;11.86;54.52
26859;BME280;14429;48.346;16.338;2023-04-03T00:23:51;100211.19;;;12.22;53.71
26859;BME280;14429;48.346;16.338;2023-04-03T00:26:17;100214.50;;;11.34;49.48
26859;BME280;14429;48.346;16.338;2023-04-03T00:28:42;100216.09;;;11.50;54.56
26859;BME280;14429;48.346;16.338;2023-04-03T00:31:08;100214.34;;;11.77;56.01
26859;BME280;14429;48.346;16.338;2023-04-03T00:33:34;100218.41;;;11.82;52.70
26859;BME280;14429;48.346;16.338;2023-04-03T00:36:05;100223.63;;;11.57;54.99
26859;BME280;14429;48.346;16.338;2023-04-03T00:38:31;100224.97;;;11.09;50.48
26859;BME280;14429;48.346;16.338;2023-04-03T00:40:56;100217.00;;;11.51;51.25
26859;BME280;14429;48.346;16.338;2023-04-03T00:43:23;100219.66;;;11.09;49.50
26859;BME280;14429;48.346;16.338;2023-04-03T00:45:50;100217.25;;;12.12;54.07
26859;BME280;14429;48.346;16.338;2023-04-03T00:48:20;100217.25;;;11.86;52.76
26859;BME280;14429;48.346;16.338;2023-04-03T00:50:48;100199.38;;;11.74;52.92
26859;BME280;14429;48.346;16.338;2023-04-03T00:53:19;100198.44;;;12.13;52.75
26859;BME280;14429;48.346;16.338;2023-04-03T00:55:47;100204.66;;;12.14;56.29
26859;BME280;14429;48.346;16.338;2023-04-03T00:58:15;100206.72;;;11.97;51.53
26859;BME280;14429;48.346;16.338;2023-04-03T01:00:46;100202.53;;;11.67;51.34
26859;BME280;14429;48.346;16.338;2023-04-03T01:03:13;100206.41;;;12.01;49.87
26859;BME280;14429;48.346;16.338;2023-04-03T01:05:39;100205.75;;;11.72;50.47
26859;BME280;14429;48.346;16.338;2023-04-03T01:08:06;100209.53;;;12.08;53.72
26859;BME280;14429;48.346;16.338;2023-04-03T01:10:32;100202.06;;;12.12;53.39
26859;BME280;14429;48.346;16.338;2023-04-03T01:12:59;100188.19;;;12.95;53.22
26859;BME280;14429;48.346;16.338;2023-04-03T01:15:27;100202.22;;;11.97;49.88
26859;BME280;14429;48.346;16.338;2023-04-03T01:17:53;100199.34;;;11.88;54.98
26859;BME280;14429;48.346;16.338;2023-04-03T01:23:32;100217.94;;;11.08;53.40
26859;BME280;14429;48.346;16.338;2023-04-03T01:26:03;100221.75;;;11.46;51.17
26859;BME280;14429;48.346;16.338;2023-04-03T01:28:30;100211.06;;;12.12;54.03
26859;BME280;14429;48.346;16.338;2023-04-03T01:31:00;100220.19;;;11.69;55.38
26859;BME280;14429;48.346;16.338;2023-04-03T01:33:29;100219.66;;;11.09;50.77
26859;BME280;14429;48.346;16.338;2023-04-03T01:35:55;100217.38;;;11.17;49.68
26859;BME280;14429;48.346;16.338;2023-04-03T01:38:21;100217.78;;;11.65;52.34
26859;BME280;14429;48.346;16.338;2023-04-03T01:40:46;100216.19;;;11.35;49.08
26859;BME280;14429;48.346;16.338;2023-04-03T01:43:12;100215.06;;;11.39;50.32
26859;BME280;14429;48.346;16.338;2023-04-03T01:45:37;100221.53;;;11.35;53.34
26859;BME280;14429;48.346;16.338;2023-04-03T01:48:03;100222.69;;;11.31;51.35
26859;BME280;14429;48.346;16.338;2023-04-03T01:50:30;100211.56;;;11.38;50.86
26859;BME280;14429;48.346;16.338;2023-04-03T01:52:55;100214.81;;;10.88;55.27
26859;BME280;14429;48.346;16.338;2023-04-03T01:55:21;100222.16;;;10.99;50.82
26859;BME280;14429;48.346;16.338;2023-04-03T01:57:46;100211.53;;;10.83;56.45
26859;BME280;14429;48.346;16.338;2023-04-03T02:00:13;100220.09;;;10.61;52.37
26859;BME280;14429;48.346;16.338;2023-04-03T02:02:38;100222.97;;;10.29;54.88
26859;BME280;14429;48.346;16.338;2023-04-03T02:05:04;100233.16;;;10.65;54.62
26859;BME280;14429;48.346;16.338;2023-04-03T02:07:31;100228.19;;;10.59;53.15
26859;BME280;14429;48.346;16.338;2023-04-03T02:09:56;100233.56;;;10.73;54.75
26859;BME280;14429;48.346;16.338;2023-04-03T02:12:22;100229.66;;;11.33;58.15
26859;BME280;14429;48.346;16.338;2023-04-03T02:14:47;100230.00;;;10.59;52.38
26859;BME280;14429;48.346;16.338;2023-04-03T02:17:12;100223.13;;;10.55;52.75
26859;BME280;14429;48.346;16.338;2023-04-03T02:19:38;100235.03;;;11.06;55.74
26859;BME280;14429;48.346;16.338;2023-04-03T02:22:04;100231.66;;;10.89;57.74
26859;BME280;14429;48.346;16.338;2023-04-03T02:24:31;100232.16;;;10.52;51.65
26859;BME280;14429;48.346;16.338;2023-04-03T02:26:57;100233.56;;;10.87;56.12
26859;BME280;14429;48.346;16.338;2023-04-03T02:29:23;100238.69;;;10.90;55.11
26859;BME280;14429;48.346;16.338;2023-04-03T02:31:49;100230.72;;;11.17;53.99
26859;BME280;14429;48.346;16.338;2023-04-03T02:34:14;100236.06;;;11.03;52.24
26859;BME280;14429;48.346;16.338;2023-04-03T02:36:40;100244.50;;;10.69;56.62
26859;BME280;14429;48.346;16.338;2023-04-03T02:39:05;100240.78;;;10.71;57.08
26859;BME280;14429;48.346;16.338;2023-04-03T02:41:32;100239.28;;;11.08;56.64
26859;BME280;14429;48.346;16.338;2023-04-03T02:43:58;100254.91;;;11.01;52.94
26859;BME280;14429;48.346;16.338;2023-04-03T02:46:23;100246.28;;;10.68;57.84
26859;BME280;14429;48.346;16.338;2023-04-03T02:48:48;100245.78;;;11.46;57.78
26859;BME280;14429;48.346;16.338;2023-04-03T02:51:14;100252.44;;;11.25;55.32
26859;BME280;14429;48.346;16.338;2023-04-03T02:53:39;100247.66;;;11.71;55.55
26859;BME280;14429;48.346;16.338;2023-04-03T02:56:05;100252.44;;;11.53;50.36
26859;BME280;14429;48.346;16.338;2023-04-03T02:58:32;100245.28;;;11.53;52.34
26859;BME280;14429;48.346;16.338;2023-04-03T03:00:57;100259.59;;;10.25;50.45
26859;BME280;14429;48.346;16.338;2023-04-03T03:03:22;100257.00;;;11.23;54.39
26859;BME280;14429;48.346;16.338;2023-04-03T03:05:48;100261.47;;;11.09;57.05
26859;BME280;14429;48.346;16.338;2023-04-03T03:08:13;100253.06;;;10.74;54.30
26859;BME280;14429;48.346;16.338;2023-04-03T03:10:39;100259.84;;;10.50;50.74
26859;BME280;14429;48.346;16.338;2023-04-03T03:13:04;100267.22;;;10.60;53.92
26859;BME280;14429;48.346;16.338;2023-04-03T03:15:31;100267.66;;;10.82;56.83
26859;BME280;14429;48.346;16.338;2023-04-03T03:17:56;100260.19;;;10.59;54.24
26859;BME280;14429;48.346;16.338;2023-04-03T03:20:22;100258.94;;;10.51;52.89
26859;BME280;14429;48.346;16.338;2023-04-03T03:22:47;100263.03;;;10.27;53.50
26859;BME280;14429;48.346;16.338;2023-04-03T03:25:14;100259.81;;;10.07;51.86
26859;BME280;14429;48.346;16.338;2023-04-03T03:27:39;100259.31;;;9.55;52.68
26859;BME280;14429;48.346;16.338;2023-04-03T03:30:06;100262.78;;;10.32;58.24
26859;BME280;14429;48.346;16.338;2023-04-03T03:32:33;100263.75;;;10.45;52.19
26859;BME280;14429;48.346;16.338;2023-04-03T03:34:59;100269.41;;;9.64;53.46
26859;BME280;14429;48.346;16.338;2023-04-03T03:37:24;100264.97;;;10.68;55.90
26859;BME280;14429;48.346;16.338;2023-04-03T03:39:49;100266.38;;;10.02;54.79
26859;BME280;14429;48.346;16.338;2023-04-03T03:42:15;100256.03;;;10.83;54.19
26859;BME280;14429;48.346;16.338;2023-04-03T03:44:40;100272.56;;;9.87;54.75
26859;BME280;14429;48.346;16.338;2023-04-03T03:47:06;100266.91;;;10.94;57.01
26859;BME280;14429;48.346;16.338;2023-04-03T03:49:32;100264.84;;;11.54;54.32
26859;BME280;14429;48.346;16.338;2023-04-03T03:51:58;100262.53;;;11.20;52.87
26859;BME280;14429;48.346;16.338;2023-04-03T03:54:23;100273.09;;;10.94;50.83
26859;BME280;14429;48.346;16.338;2023-04-03T03:56:49;100268.25;;;11.28;53.02
26859;BME280;14429;48.346;16.338;2023-04-03T03:59:14;100275.44;;;9.83;51.41
26859;BME280;14429;48.346;16.338;2023-04-03T04:01:40;100273.91;;;10.09;52.18
26859;BME280;14429;48.346;16.338;2023-04-03T04:04:05;100271.47;;;10.20;53.31
26859;BME280;14429;48.346;16.338;2023-04-03T04:06:32;100268.00;;;10.76;57.42
26859;BME280;14429;48.346;16.338;2023-04-03T04:08:57;100269.94;;;10.74;51.78
26859;BME280;14429;48.346;16.338;2023-04-03T04:11:23;100278.56;;;10.64;53.06
26859;BME280;14429;48.346;16.338;2023-04-03T04:13:48;100278.13;;;10.42;56.65
26859;BME280;14429;48.346;16.338;2023-04-03T04:16:14;100278.44;;;10.51;54.72
26859;BME280;14429;48.346;16.338;2023-04-03T04:18:39;100279.59;;;9.88;53.30
26859;BME280;14429;48.346;16.338;2023-04-03T04:21:04;100277.09;;;10.45;53.55
26859;BME280;14429;48.346;16.338;2023-04-03T04:23:31;100272.72;;;10.57;55.78
26859;BME280;14429;48.346;16.338;2023-04-03T04:25:57;100282.59;;;10.42;53.51
26859;BME280;14429;48.346;16.338;2023-04-03T04:28:22;100276.97;;;10.32;56.61
26859;BME280;14429;48.346;16.338;2023-04-03T04:30:47;100284.13;;;9.71;52.66
26859;BME280;14429;48.346;16.338;2023-04-03T04:33:13;100289.38;;;10.18;58.81
26859;BME280;14429;48.346;16.338;2023-04-03T04:35:38;100284.38;;;10.12;57.45
26859;BME280;14429;48.346;16.338;2023-04-03T04:38:04;100290.81;;;10.52;58.20
26859;BME280;14429;48.346;16.338;2023-04-03T04:40:30;100287.44;;;10.35;54.35
26859;BME280;14429;48.346;16.338;2023-04-03T04:42:56;100296.81;;;10.27;56.32
26859;BME280;14429;48.346;16.338;2023-04-03T04:45:21;100299.50;;;9.66;55.19
26859;BME280;14429;48.346;16.338;2023-04-03T04:47:47;100296.41;;;9.58;54.54
26859;BME280;14429;48.346;16.338;2023-04-03T04:50:12;100312.06;;;10.10;53.66
26859;BME280;14429;48.346;16.338;2023-04-03T04:52:38;100301.69;;;10.92;57.22
26859;BME280;14429;48.346;16.338;2023-04-03T04:55:05;100307.53;;;10.41;56.55
26859;BME280;14429;48.346;16.338;2023-04-03T04:57:32;100306.53;;;10.57;56.91
26859;BME280;14429;48.346;16.338;2023-04-03T04:59:57;100305.66;;;10.27;55.86
26859;BME280;14429;48.346;16.338;2023-04-03T05:02:22;100310.00;;;10.59;57.61
26859;BME280;14429;48.346;16.338;2023-04-03T05:04:48;100309.41;;;10.97;55.24
26859;BME280;14429;48.346;16.338;2023-04-03T05:07:13;100307.56;;;11.54;55.88
26859;BME280;14429;48.346;16.338;2023-04-03T05:09:39;100316.28;;;11.28;48.68
26859;BME280;14429;48.346;16.338;2023-04-03T05:12:04;100315.09;;;10.91;50.80
26859;BME280;14429;48.346;16.338;2023-04-03T05:14:31;100317.75;;;9.89;52.10
26859;BME280;14429;48.346;16.338;2023-04-03T05:16:56;100311.59;;;10.32;54.88
26859;BME280;14429;48.346;16.338;2023-04-03T05:19:22;100310.06;;;10.57;54.16
26859;BME280;14429;48.346;16.338;2023-04-03T05:21:47;100326.06;;;10.57;51.47
26859;BME280;14429;48.346;16.338;2023-04-03T05:24:13;100321.78;;;9.48;50.98
26859;BME280;14429;48.346;16.338;2023-04-03T05:26:39;100328.03;;;9.32;51.65
26859;BME280;14429;48.346;16.338;2023-04-03T05:29:04;100326.88;;;9.68;54.30
26859;BME280;14429;48.346;16.338;2023-04-03T05:31:31;100338.50;;;9.03;53.99
26859;BME280;14429;48.346;16.338;2023-04-03T05:33:56;100333.75;;;9.25;52.49
26859;BME280;14429;48.346;16.338;2023-04-03T05:36:22;100335.06;;;9.80;58.24
26859;BME280;14429;48.346;16.338;2023-04-03T05:38:48;100328.97;;;8.99;53.02
26859;BME280;14429;48.346;16.338;2023-04-03T05:41:13;100338.88;;;9.44;57.61
26859;BME280;14429;48.346;16.338;2023-04-03T05:43:39;100334.50;;;9.43;54.33
26859;BME280;14429;48.346;16.338;2023-04-03T05:46:09;100339.63;;;9.31;55.88
26859;BME280;14429;48.346;16.338;2023-04-03T05:48:36;100343.84;;;9.18;57.76
26859;BME280;14429;48.346;16.338;2023-04-03T05:51:01;100345.06;;;9.13;58.38
26859;BME280;14429;48.346;16.338;2023-04-03T05:53:28;100338.19;;;9.09;56.89
26859;BME280;14429;48.346;16.338;2023-04-03T05:55:54;100352.78;;;9.17;57.33
26859;BME280;14429;48.346;16.338;2023-04-03T05:58:19;100349.22;;;8.52;53.97
26859;BME280;14429;48.346;16.338;2023-04-03T06:00:45;100342.03;;;8.54;53.56
26859;BME280;14429;48.346;16.338;2023-04-03T06:03:11;100350.25;;;8.83;56.24
26859;BME280;14429;48.346;16.338;2023-04-03T06:05:37;100352.38;;;8.41;53.52
26859;BME280;14429;48.346;16.338;2023-04-03T06:08:03;100354.22;;;8.23;54.70
26859;BME280;14429;48.346;16.338;2023-04-03T06:10:29;100357.09;;;9.03;59.75
26859;BME280;14429;48.346;16.338;2023-04-03T06:12:54;100360.06;;;8.47;53.87
26859;BME280;14429;48.346;16.338;2023-04-03T06:15:20;100361.47;;;9.53;58.49
26859;BME280;14429;48.346;16.338;2023-04-03T06:17:46;100364.34;;;8.33;52.89
26859;BME280;14429;48.346;16.338;2023-04-03T06:20:12;100373.97;;;7.99;53.54
26859;BME280;14429;48.346;16.338;2023-04-03T06:22:39;100373.22;;;8.67;56.97
26859;BME280;14429;48.346;16.338;2023-04-03T06:25:05;100378.56;;;8.49;52.97
26859;BME280;14429;48.346;16.338;2023-04-03T06:27:30;100374.00;;;8.69;52.61
26859;BME280;14429;48.346;16.338;2023-04-03T06:29:56;100383.75;;;7.99;52.47
26859;BME280;14429;48.346;16.338;2023-04-03T06:32:21;100391.81;;;7.41;53.52
26859;BME280;14429;48.346;16.338;2023-04-03T06:34:47;100385.59;;;7.42;55.63
26859;BME280;14429;48.346;16.338;2023-04-03T06:37:14;100389.00;;;7.44;53.17
26859;BME280;14429;48.346;16.338;2023-04-03T06:39:41;100397.50;;;7.88;54.27
26859;BME280;14429;48.346;16.338;2023-04-03T06:42:07;100396.72;;;8.23;60.28
26859;BME280;14429;48.346;16.338;2023-04-03T06:44:32;100400.09;;;7.72;55.06
26859;BME280;14429;48.346;16.338;2023-04-03T06:46:58;100400.06;;;8.09;55.47
26859;BME280;14429;48.346;16.338;2023-04-03T06:49:23;100401.09;;;7.69;52.96
26859;BME280;14429;48.346;16.338;2023-04-03T06:51:48;100412.88;;;7.64;54.34
26859;BME280;14429;48.346;16.338;2023-04-03T06:54:14;100419.94;;;7.25;53.20
26859;BME280;14429;48.346;16.338;2023-04-03T06:56:41;100409.81;;;7.15;53.69
26859;BME280;14429;48.346;16.338;2023-04-03T06:59:06;100409.41;;;7.62;54.41
26859;BME280;14429;48.346;16.338;2023-04-03T07:01:32;100419.50;;;7.54;53.43
26859;BME280;14429;48.346;16.338;2023-04-03T07:03:57;100410.00;;;7.68;53.80
26859;BME280;14429;48.346;16.338;2023-04-03T07:06:23;100414.56;;;7.65;57.03
26859;BME280;14429;48.346;16.338;2023-04-03T07:08:49;100417.47;;;8.15;59.65
26859;BME280;14429;48.346;16.338;2023-04-03T07:11:14;100413.88;;;7.98;53.91
26859;BME280;14429;48.346;16.338;2023-04-03T07:13:41;100411.84;;;8.57;55.39
26859;BME280;14429;48.346;16.338;2023-04-03T07:16:08;100416.31;;;8.38;52.11
26859;BME280;14429;48.346;16.338;2023-04-03T07:18:33;100422.63;;;8.00;51.43
26859;BME280;14429;48.346;16.338;2023-04-03T07:20:59;100422.50;;;8.21;55.72
26859;BME280;14429;48.346;16.338;2023-04-03T07:23:25;100415.22;;;9.11;59.02
26859;BME280;14429;48.346;16.338;2023-04-03T07:25:51;100415.63;;;9.20;52.26
26859;BME280;14429;48.346;16.338;2023-04-03T07:28:18;100413.09;;;9.97;52.61
26859;BME280;14429;48.346;16.338;2023-04-03T07:30:47;100421.72;;;9.05;48.46
26859;BME280;14429;48.346;16.338;2023-04-03T07:33:14;100431.63;;;8.85;49.47
26859;BME280;14429;48.346;16.338;2023-04-03T07:35:41;100432.50;;;8.86;50.04
26859;BME280;14429;48.346;16.338;2023-04-03T07:38:07;100432.63;;;8.66;48.97
26859;BME280;14429;48.346;16.338;2023-04-03T07:40:33;100429.22;;;8.97;51.96
26859;BME280;14429;48.346;16.338;2023-04-03T07:42:58;100437.50;;;9.08;50.74
26859;BME280;14429;48.346;16.338;2023-04-03T07:45:23;100432.16;;;8.75;50.33
26859;BME280;14429;48.346;16.338;2023-04-03T07:47:50;100438.47;;;8.90;49.81
26859;BME280;14429;48.346;16.338;2023-04-03T07:50:16;100440.59;;;8.66;50.03
26859;BME280;14429;48.346;16.338;2023-04-03T07:52:41;100441.06;;;8.74;50.46
26859;BME280;14429;48.346;16.338;2023-04-03T07:55:07;100430.31;;;9.10;52.97
26859;BME280;14429;48.346;16.338;2023-04-03T07:57:33;100432.81;;;8.96;48.50
26859;BME280;14429;48.346;16.338;2023-04-03T07:59:58;100433.22;;;9.39;49.59
26859;BME280;14429;48.346;16.338;2023-04-03T08:02:24;100438.91;;;9.48;51.00
26859;BME280;14429;48.346;16.338;2023-04-03T08:04:51;100432.16;;;9.41;46.70
26859;BME280;14429;48.346;16.338;2023-04-03T08:07:16;100438.88;;;9.65;48.74
26859;BME280;14429;48.346;16.338;2023-04-03T08:09:41;100436.63;;;9.90;45.63
26859;BME280;14429;48.346;16.338;2023-04-03T08:12:07;100436.16;;;9.98;45.08
26859;BME280;14429;48.346;16.338;2023-04-03T08:14:33;100447.44;;;9.87;45.26
26859;BME280;14429;48.346;16.338;2023-04-03T08:16:58;100435.06;;;9.86;44.41
26859;BME280;14429;48.346;16.338;2023-04-03T08:19:24;100435.81;;;10.04;43.23
26859;BME280;14429;48.346;16.338;2023-04-03T08:21:50;100435.66;;;10.23;42.96
26859;BME280;14429;48.346;16.338;2023-04-03T08:24:16;100431.00;;;10.26;42.66
26859;BME280;14429;48.346;16.338;2023-04-03T08:26:42;100420.75;;;10.64;42.15
26859;BME280;14429;48.346;16.338;2023-04-03T08:29:07;100425.63;;;10.87;41.19
26859;BME280;14429;48.346;16.338;2023-04-03T08:31:33;100432.31;;;11.23;40.98
26859;BME280;14429;48.346;16.338;2023-04-03T08:33:59;100430.72;;;11.05;42.02
26859;BME280;14429;48.346;16.338;2023-04-03T08:36:25;100436.66;;;10.81;44.46
26859;BME280;14429;48.346;16.338;2023-04-03T08:38:53;100440.66;;;10.44;42.42
26859;BME280;14429;48.346;16.338;2023-04-03T08:41:26;100441.66;;;10.26;42.96
26859;BME280;14429;48.346;16.338;2023-04-03T08:43:58;100451.09;;;10.16;43.07
26859;BME280;14429;48.346;16.338;2023-04-03T08:46:37;100452.53;;;9.26;43.43
26859;BME280;14429;48.346;16.338;2023-04-03T08:49:10;100452.94;;;9.35;46.80
26859;BME280;14429;48.346;16.338;2023-04-03T08:51:43;100445.63;;;8.88;43.93
26859;BME280;14429;48.346;16.338;2023-04-03T08:54:24;100450.16;;;8.70;47.45
26859;BME280;14429;48.346;16.338;2023-04-03T08:56:50;100468.28;;;8.26;43.48
26859;BME280;14429;48.346;16.338;2023-04-03T08:59:21;100445.81;;;8.67;46.34
26859;BME280;14429;48.346;16.338;2023-04-03T09:01:49;100453.09;;;8.99;48.29
26859;BME280;14429;48.346;16.338;2023-04-03T09:04:16;100448.72;;;8.63;43.76
26859;BME280;14429;48.346;16.338;2023-04-03T09:06:42;100451.63;;;8.40;43.07
26859;BME280;14429;48.346;16.338;2023-04-03T09:09:15;100448.78;;;8.27;44.42
26859;BME280;14429;48.346;16.338;2023-04-03T09:11:47;100441.25;;;9.04;50.17
26859;BME280;14429;48.346;16.338;2023-04-03T09:14:23;100451.59;;;9.27;53.87
26859;BME280;14429;48.346;16.338;2023-04-03T09:16:54;100447.06;;;8.95;43.93
26859;BME280;14429;48.346;16.338;2023-04-03T09:19:25;100453.09;;;8.99;49.78
26859;BME280;14429;48.346;16.338;2023-04-03T09:21:56;100454.13;;;8.78;48.00
26859;BME280;14429;48.346;16.338;2023-04-03T09:24:24;100451.66;;;8.75;43.09
26859;BME280;14429;48.346;16.338;2023-04-03T09:26:53;100450.09;;;8.71;43.69
26859;BME280;14429;48.346;16.338;2023-04-03T09:29:21;100457.44;;;8.48;46.77
26859;BME280;14429;48.346;16.338;2023-04-03T09:31:49;100459.81;;;8.36;45.57
26859;BME280;14429;48.346;16.338;2023-04-03T09:34:19;100454.25;;;9.27;52.70
26859;BME280;14429;48.346;16.338;2023-04-03T09:36:47;100463.91;;;8.78;48.90
26859;BME280;14429;48.346;16.338;2023-04-03T09:39:15;100477.59;;;8.52;43.15
26859;BME280;14429;48.346;16.338;2023-04-03T09:41:55;100472.47;;;8.31;49.54
26859;BME280;14429;48.346;16.338;2023-04-03T09:44:23;100467.06;;;8.86;52.84
26859;BME280;14429;48.346;16.338;2023-04-03T09:46:48;100468.03;;;9.01;49.68
26859;BME280;14429;48.346;16.338;2023-04-03T09:49:14;100472.66;;;8.45;44.11
26859;BME280;14429;48.346;16.338;2023-04-03T09:51:39;100470.88;;;8.45;49.12
26859;BME280;14429;48.346;16.338;2023-04-03T09:57:10;100470.13;;;8.60;43.97
26859;BME280;14429;48.346;16.338;2023-04-03T09:59:38;100474.78;;;8.38;43.12
26859;BME280;14429;48.346;16.338;2023-04-03T10:02:22;100461.41;;;8.75;43.23
26859;BME280;14429;48.346;16.338;2023-04-03T10:04:49;100463.78;;;8.81;44.39
26859;BME280;14429;48.346;16.338;2023-04-03T10:07:30;100474.41;;;8.81;44.67
26859;BME280;14429;48.346;16.338;2023-04-03T10:09:56;100480.22;;;8.54;43.27
26859;BME280;14429;48.346;16.338;2023-04-03T10:12:24;100471.72;;;8.64;46.13
26859;BME280;14429;48.346;16.338;2023-04-03T10:14:54;100481.47;;;8.63;45.26
26859;BME280;14429;48.346;16.338;2023-04-03T10:17:28;100477.78;;;8.13;43.56
26859;BME280;14429;48.346;16.338;2023-04-03T10:20:03;100484.22;;;8.26;43.49
26859;BME280;14429;48.346;16.338;2023-04-03T10:22:37;100480.44;;;9.01;46.70
26859;BME280;14429;48.346;16.338;2023-04-03T10:25:11;100487.88;;;8.94;48.32
26859;BME280;14429;48.346;16.338;2023-04-03T10:27:48;100481.97;;;9.40;42.88
26859;BME280;14429;48.346;16.338;2023-04-03T10:30:22;100481.97;;;9.40;43.79
26859;BME280;14429;48.346;16.338;2023-04-03T10:32:59;100480.38;;;9.02;38.68
26859;BME280;14429;48.346;16.338;2023-04-03T10:35:39;100492.97;;;8.99;39.47
26859;BME280;14429;48.346;16.338;2023-04-03T10:38:15;100479.25;;;8.89;39.38
26859;BME280;14429;48.346;16.338;2023-04-03T10:40:47;100486.91;;;8.79;38.47
26859;BME280;14429;48.346;16.338;2023-04-03T10:43:24;100494.22;;;8.57;43.13
26859;BME280;14429;48.346;16.338;2023-04-03T10:45:57;100502.75;;;8.98;47.32
26859;BME280;14429;48.346;16.338;2023-04-03T10:48:35;100500.59;;;8.71;44.86
26859;BME280;14429;48.346;16.338;2023-04-03T10:51:12;100502.66;;;9.00;47.58
26859;BME280;14429;48.346;16.338;2023-04-03T10:53:43;100491.44;;;8.04;40.69
26859;BME280;14429;48.346;16.338;2023-04-03T10:56:13;100494.59;;;8.32;42.62
26859;BME280;14429;48.346;16.338;2023-04-03T10:58:45;100492.19;;;10.12;49.24
26859;BME280;14429;48.346;16.338;2023-04-03T11:01:16;100488.38;;;9.19;39.84
26859;BME280;14429;48.346;16.338;2023-04-03T11:03:44;100485.72;;;9.36;49.34
26859;BME280;14429;48.346;16.338;2023-04-03T11:06:12;100474.59;;;9.44;41.08
26859;BME280;14429;48.346;16.338;2023-04-03T11:08:43;100471.63;;;9.34;40.32
26859;BME280;14429;48.346;16.338;2023-04-03T11:11:13;100474.53;;;9.78;49.22
26859;BME280;14429;48.346;16.338;2023-04-03T11:13:46;100464.34;;;10.94;50.09
26859;BME280;14429;48.346;16.338;2023-04-03T11:16:17;100466.72;;;9.75;39.47
26859;BME280;14429;48.346;16.338;2023-04-03T11:18:48;100469.03;;;10.45;49.73
26859;BME280;14429;48.346;16.338;2023-04-03T11:21:19;100469.19;;;10.87;50.72
26859;BME280;14429;48.346;16.338;2023-04-03T11:23:46;100464.44;;;10.92;47.04
26859;BME280;14429;48.346;16.338;2023-04-03T11:26:12;100461.38;;;11.13;50.77
26859;BME280;14429;48.346;16.338;2023-04-03T11:28:39;100461.88;;;10.60;43.64
26859;BME280;14429;48.346;16.338;2023-04-03T11:31:15;100465.75;;;10.24;41.68
26859;BME280;14429;48.346;16.338;2023-04-03T11:33:55;100470.22;;;10.24;37.75
26859;BME280;14429;48.346;16.338;2023-04-03T11:36:24;100471.31;;;9.40;36.98
26859;BME280;14429;48.346;16.338;2023-04-03T11:38:53;100455.41;;;9.38;39.94
26859;BME280;14429;48.346;16.338;2023-04-03T11:41:26;100456.78;;;8.61;42.37
26859;BME280;14429;48.346;16.338;2023-04-03T11:43:58;100459.22;;;8.66;39.30
26859;BME280;14429;48.346;16.338;2023-04-03T11:46:54;100466.69;;;9.10;43.61
26859;BME280;14429;48.346;16.338;2023-04-03T11:49:51;100462.50;;;8.71;40.22
26859;BME280;14429;48.346;16.338;2023-04-03T11:55:43;100455.69;;;8.31;39.04
26859;BME280;14429;48.346;16.338;2023-04-03T11:58:14;100464.28;;;8.35;41.28
26859;BME280;14429;48.346;16.338;2023-04-03T12:01:05;100472.16;;;8.19;40.34
26859;BME280;14429;48.346;16.338;2023-04-03T12:09:35;100472.13;;;8.73;41.97
26859;BME280;14429;48.346;16.338;2023-04-03T12:12:28;100471.47;;;8.87;43.62
26859;BME280;14429;48.346;16.338;2023-04-03T12:14:54;100463.69;;;8.29;37.70
26859;BME280;14429;48.346;16.338;2023-04-03T12:17:22;100464.59;;;8.64;45.29
26859;BME280;14429;48.346;16.338;2023-04-03T12:19:50;100455.78;;;8.64;39.05
26859;BME280;14429;48.346;16.338;2023-04-03T12:22:18;100463.22;;;8.56;41.74
26859;BME280;14429;48.346;16.338;2023-04-03T12:24:45;100452.22;;;9.15;43.11
26859;BME280;14429;48.346;16.338;2023-04-03T12:27:26;100457.75;;;8.77;37.88
26859;BME280;14429;48.346;16.338;2023-04-03T12:30:00;100453.97;;;8.64;40.23
26859;BME280;14429;48.346;16.338;2023-04-03T12:32:46;100455.06;;;8.61;37.91
26859;BME280;14429;48.346;16.338;2023-04-03T12:35:21;100457.22;;;8.88;38.19
26859;BME280;14429;48.346;16.338;2023-04-03T12:38:02;100455.97;;;8.94;44.80
26859;BME280;14429;48.346;16.338;2023-04-03T12:40:41;100447.59;;;8.85;38.77
26859;BME280;14429;48.346;16.338;2023-04-03T12:43:20;100442.16;;;8.70;38.29
26859;BME280;14429;48.346;16.338;2023-04-03T12:45:52;100444.88;;;9.03;47.38
26859;BME280;14429;48.346;16.338;2023-04-03T12:48:24;100451.53;;;8.60;41.84
26859;BME280;14429;48.346;16.338;2023-04-03T12:50:50;100454.47;;;8.72;37.43
26859;BME280;14429;48.346;16.338;2023-04-03T12:53:19;100451.81;;;8.89;38.79
26859;BME280;14429;48.346;16.338;2023-04-03T12:55:46;100440.88;;;9.77;52.94
26859;BME280;14429;48.346;16.338;2023-04-03T12:58:14;100445.94;;;9.49;38.09
26859;BME280;14429;48.346;16.338;2023-04-03T13:00:39;100437.69;;;9.05;37.72
26859;BME280;14429;48.346;16.338;2023-04-03T13:03:06;100442.19;;;9.53;48.51
26859;BME280;14429;48.346;16.338;2023-04-03T13:05:44;100434.53;;;9.31;36.85